sensor_id;sensor_type;location;lat;lon;timestamp;temperature;humidity
40676;DHT22;26359;48.750;9.314;2024-03-17T00:01:01;8.30;99.90
40676;DHT22;26359;48.750;9.314;2024-03-17T00:03:27;8.20;99.90
40676;DHT22;26359;48.750;9.314;2024-03-17T00:06:01;8.20;99.90
40676;DHT22;26359;48.750;9.314;2024-03-17T00:08:26;8.20;99.90
40676;DHT22;26359;48.750;9.314;2024-03-17T00:10:55;8.10;99.90
40676;DHT22;26359;48.750;9.314;2024-03-17T00:13:21;8.10;99.90
40676;DHT22;26359;48.750;9.314;2024-03-17T00:15:48;8.10;99.90
40676;DHT22;26359;48.750;9.314;2024-03-17T00:18:13;8.10;99.90
40676;DHT22;26359;48.750;9.314;2024-03-17T00:20:40;8.10;99.90
40676;DHT22;26359;48.750;9.314;2024-03-17T00:23:05;8.00;99.90
40676;DHT22;26359;48.750;9.314;2024-03-17T00:25:32;8.00;99.90
40676;DHT22;26359;48.750;9.314;2024-03-17T00:27:59;8.00;99.90
40676;DHT22;26359;48.750;9.314;2024-03-17T00:30:25;8.10;99.90
40676;DHT22;26359;48.750;9.314;2024-03-17T00:32:50;8.00;99.90
40676;DHT22;26359;48.750;9.314;2024-03-17T00:35:16;8.00;99.90
40676;DHT22;26359;48.750;9.314;2024-03-17T00:37:46;8.00;99.90
40676;DHT22;26359;48.750;9.314;2024-03-17T00:40:12;8.00;99.90
40676;DHT22;26359;48.750;9.314;2024-03-17T00:42:38;8.00;99.90
40676;DHT22;26359;48.750;9.314;2024-03-17T00:45:03;8.00;99.90
40676;DHT22;26359;48.750;9.314;2024-03-17T00:47:32;8.00;99.90
40676;DHT22;26359;48.750;9.314;2024-03-17T00:49:57;8.00;99.90
40676;DHT22;26359;48.750;9.314;2024-03-17T00:52:23;8.00;99.90
40676;DHT22;26359;48.750;9.314;2024-03-17T00:54:48;8.00;99.90
40676;DHT22;26359;48.750;9.314;2024-03-17T00:57:14;8.10;99.90
40676;DHT22;26359;48.750;9.314;2024-03-17T00:59:41;8.10;99.90
40676;DHT22;26359;48.750;9.314;2024-03-17T01:02:10;8.10;99.90
40676;DHT22;26359;48.750;9.314;2024-03-17T01:04:37;8.10;99.90
40676;DHT22;26359;48.750;9.314;2024-03-17T01:07:03;8.10;99.90
40676;DHT22;26359;48.750;9.314;2024-03-17T01:09:29;8.10;99.90
40676;DHT22;26359;48.750;9.314;2024-03-17T01:11:55;8.10;99.90
40676;DHT22;26359;48.750;9.314;2024-03-17T01:14:20;8.10;99.90
40676;DHT22;26359;48.750;9.314;2024-03-17T01:16:46;8.10;99.90
40676;DHT22;26359;48.750;9.314;2024-03-17T01:19:11;8.00;99.90
40676;DHT22;26359;48.750;9.314;2024-03-17T01:21:36;8.00;99.90
40676;DHT22;26359;48.750;9.314;2024-03-17T01:24:02;8.00;99.90
40676;DHT22;26359;48.750;9.314;2024-03-17T01:26:28;8.00;99.90
40676;DHT22;26359;48.750;9.314;2024-03-17T01:28:53;8.00;99.90
40676;DHT22;26359;48.750;9.314;2024-03-17T01:31:19;8.00;99.90
40676;DHT22;26359;48.750;9.314;2024-03-17T01:33:45;8.10;99.90
40676;DHT22;26359;48.750;9.314;2024-03-17T01:36:12;8.20;99.90
40676;DHT22;26359;48.750;9.314;2024-03-17T01:38:37;8.10;99.90
40676;DHT22;26359;48.750;9.314;2024-03-17T01:41:03;8.20;99.90
40676;DHT22;26359;48.750;9.314;2024-03-17T01:43:30;8.10;99.90
40676;DHT22;26359;48.750;9.314;2024-03-17T01:45:56;8.20;99.90
40676;DHT22;26359;48.750;9.314;2024-03-17T01:48:23;8.20;99.90
40676;DHT22;26359;48.750;9.314;2024-03-17T01:50:52;8.20;99.90
40676;DHT22;26359;48.750;9.314;2024-03-17T01:53:18;8.20;99.90
40676;DHT22;26359;48.750;9.314;2024-03-17T01:55:46;8.20;99.90
40676;DHT22;26359;48.750;9.314;2024-03-17T01:58:12;8.20;99.90
40676;DHT22;26359;48.750;9.314;2024-03-17T02:00:39;8.20;99.90
40676;DHT22;26359;48.750;9.314;2024-03-17T02:03:09;8.20;99.90
40676;DHT22;26359;48.750;9.314;2024-03-17T02:05:38;8.20;99.90
40676;DHT22;26359;48.750;9.314;2024-03-17T02:08:05;8.20;99.90
40676;DHT22;26359;48.750;9.314;2024-03-17T02:10:31;8.20;99.90
40676;DHT22;26359;48.750;9.314;2024-03-17T02:12:56;8.30;99.90
40676;DHT22;26359;48.750;9.314;2024-03-17T02:15:22;8.20;99.90
40676;DHT22;26359;48.750;9.314;2024-03-17T02:17:47;8.20;99.90
40676;DHT22;26359;48.750;9.314;2024-03-17T02:20:13;8.20;99.90
40676;DHT22;26359;48.750;9.314;2024-03-17T02:22:39;8.20;99.90
40676;DHT22;26359;48.750;9.314;2024-03-17T02:25:05;8.10;99.90
40676;DHT22;26359;48.750;9.314;2024-03-17T02:27:34;8.20;99.90
40676;DHT22;26359;48.750;9.314;2024-03-17T02:30:00;8.20;99.90
40676;DHT22;26359;48.750;9.314;2024-03-17T02:32:26;8.20;99.90
40676;DHT22;26359;48.750;9.314;2024-03-17T02:34:53;8.20;99.90
40676;DHT22;26359;48.750;9.314;2024-03-17T02:37:18;8.30;99.90
40676;DHT22;26359;48.750;9.314;2024-03-17T02:39:44;8.20;99.90
40676;DHT22;26359;48.750;9.314;2024-03-17T02:42:10;8.30;99.90
40676;DHT22;26359;48.750;9.314;2024-03-17T02:44:38;8.30;99.90
40676;DHT22;26359;48.750;9.314;2024-03-17T02:47:06;8.30;99.90
40676;DHT22;26359;48.750;9.314;2024-03-17T02:49:34;8.30;99.90
40676;DHT22;26359;48.750;9.314;2024-03-17T02:52:07;8.20;99.90
40676;DHT22;26359;48.750;9.314;2024-03-17T02:54:35;8.00;99.90
40676;DHT22;26359;48.750;9.314;2024-03-17T02:57:01;7.90;99.90
40676;DHT22;26359;48.750;9.314;2024-03-17T02:59:27;7.90;99.90
40676;DHT22;26359;48.750;9.314;2024-03-17T03:01:53;7.90;99.90
40676;DHT22;26359;48.750;9.314;2024-03-17T03:04:18;8.00;99.90
40676;DHT22;26359;48.750;9.314;2024-03-17T03:06:44;8.00;99.90
40676;DHT22;26359;48.750;9.314;2024-03-17T03:09:09;8.00;99.90
40676;DHT22;26359;48.750;9.314;2024-03-17T03:11:40;8.00;99.90
40676;DHT22;26359;48.750;9.314;2024-03-17T03:14:06;8.00;99.90
40676;DHT22;26359;48.750;9.314;2024-03-17T03:16:32;8.00;99.90
40676;DHT22;26359;48.750;9.314;2024-03-17T03:18:57;7.90;99.90
40676;DHT22;26359;48.750;9.314;2024-03-17T03:21:23;7.90;99.90
40676;DHT22;26359;48.750;9.314;2024-03-17T03:23:48;7.90;99.90
40676;DHT22;26359;48.750;9.314;2024-03-17T03:26:14;7.90;99.90
40676;DHT22;26359;48.750;9.314;2024-03-17T03:28:40;7.80;99.90
40676;DHT22;26359;48.750;9.314;2024-03-17T03:31:05;7.90;99.90
40676;DHT22;26359;48.750;9.314;2024-03-17T03:33:32;7.80;99.90
40676;DHT22;26359;48.750;9.314;2024-03-17T03:35:58;7.70;99.90
40676;DHT22;26359;48.750;9.314;2024-03-17T03:38:23;7.80;99.90
40676;DHT22;26359;48.750;9.314;2024-03-17T03:40:49;7.80;99.90
40676;DHT22;26359;48.750;9.314;2024-03-17T03:43:15;7.80;99.90
40676;DHT22;26359;48.750;9.314;2024-03-17T03:45:41;7.80;99.90
40676;DHT22;26359;48.750;9.314;2024-03-17T03:48:07;7.80;99.90
40676;DHT22;26359;48.750;9.314;2024-03-17T03:50:34;7.70;99.90
40676;DHT22;26359;48.750;9.314;2024-03-17T03:53:00;7.70;99.90
40676;DHT22;26359;48.750;9.314;2024-03-17T03:55:26;7.70;99.90
40676;DHT22;26359;48.750;9.314;2024-03-17T03:57:51;7.60;99.90
40676;DHT22;26359;48.750;9.314;2024-03-17T04:00:20;7.70;99.90
40676;DHT22;26359;48.750;9.314;2024-03-17T04:02:50;7.60;99.90
40676;DHT22;26359;48.750;9.314;2024-03-17T04:05:17;7.50;99.90
40676;DHT22;26359;48.750;9.314;2024-03-17T04:07:43;7.50;99.90
40676;DHT22;26359;48.750;9.314;2024-03-17T04:10:12;7.40;99.90
40676;DHT22;26359;48.750;9.314;2024-03-17T04:12:37;7.40;99.90
40676;DHT22;26359;48.750;9.314;2024-03-17T04:15:04;7.40;99.90
40676;DHT22;26359;48.750;9.314;2024-03-17T04:17:31;7.50;99.90
40676;DHT22;26359;48.750;9.314;2024-03-17T04:19:58;7.50;99.90
40676;DHT22;26359;48.750;9.314;2024-03-17T04:22:23;7.50;99.90
40676;DHT22;26359;48.750;9.314;2024-03-17T04:24:50;7.50;99.90
40676;DHT22;26359;48.750;9.314;2024-03-17T04:27:22;7.50;99.90
40676;DHT22;26359;48.750;9.314;2024-03-17T04:29:53;7.50;99.90
40676;DHT22;26359;48.750;9.314;2024-03-17T04:32:19;7.60;99.90
40676;DHT22;26359;48.750;9.314;2024-03-17T04:34:45;7.60;99.90
40676;DHT22;26359;48.750;9.314;2024-03-17T04:37:11;7.60;99.90
40676;DHT22;26359;48.750;9.314;2024-03-17T04:39:40;7.60;99.90
40676;DHT22;26359;48.750;9.314;2024-03-17T04:42:06;7.60;99.90
40676;DHT22;26359;48.750;9.314;2024-03-17T04:44:32;7.60;99.90
40676;DHT22;26359;48.750;9.314;2024-03-17T04:46:57;7.60;99.90
40676;DHT22;26359;48.750;9.314;2024-03-17T04:49:23;7.60;99.90
40676;DHT22;26359;48.750;9.314;2024-03-17T04:51:48;7.60;99.90
40676;DHT22;26359;48.750;9.314;2024-03-17T04:54:15;7.60;99.90
40676;DHT22;26359;48.750;9.314;2024-03-17T04:56:41;7.60;99.90
40676;DHT22;26359;48.750;9.314;2024-03-17T04:59:06;7.70;99.90
40676;DHT22;26359;48.750;9.314;2024-03-17T05:01:32;7.60;99.90
40676;DHT22;26359;48.750;9.314;2024-03-17T05:04:02;7.60;99.90
40676;DHT22;26359;48.750;9.314;2024-03-17T05:06:28;7.60;99.90
40676;DHT22;26359;48.750;9.314;2024-03-17T05:08:54;7.60;99.90
40676;DHT22;26359;48.750;9.314;2024-03-17T05:11:19;7.50;99.90
40676;DHT22;26359;48.750;9.314;2024-03-17T05:13:45;7.40;99.90
40676;DHT22;26359;48.750;9.314;2024-03-17T05:16:11;7.40;99.90
40676;DHT22;26359;48.750;9.314;2024-03-17T05:18:36;7.30;99.90
40676;DHT22;26359;48.750;9.314;2024-03-17T05:21:05;7.30;99.90
40676;DHT22;26359;48.750;9.314;2024-03-17T05:23:34;7.30;99.90
40676;DHT22;26359;48.750;9.314;2024-03-17T05:26:00;7.20;99.90
40676;DHT22;26359;48.750;9.314;2024-03-17T05:28:27;7.20;99.90
40676;DHT22;26359;48.750;9.314;2024-03-17T05:30:54;7.20;99.90
40676;DHT22;26359;48.750;9.314;2024-03-17T05:33:20;7.20;99.90
40676;DHT22;26359;48.750;9.314;2024-03-17T05:35:50;7.10;99.90
40676;DHT22;26359;48.750;9.314;2024-03-17T05:38:18;7.10;99.90
40676;DHT22;26359;48.750;9.314;2024-03-17T05:40:52;7.10;99.90
40676;DHT22;26359;48.750;9.314;2024-03-17T05:43:18;7.20;99.90
40676;DHT22;26359;48.750;9.314;2024-03-17T05:45:43;7.00;99.90
40676;DHT22;26359;48.750;9.314;2024-03-17T05:48:09;7.00;99.90
40676;DHT22;26359;48.750;9.314;2024-03-17T05:50:35;7.10;99.90
40676;DHT22;26359;48.750;9.314;2024-03-17T05:53:00;7.10;99.90
40676;DHT22;26359;48.750;9.314;2024-03-17T05:55:26;7.20;99.90
40676;DHT22;26359;48.750;9.314;2024-03-17T05:57:51;7.30;99.90
40676;DHT22;26359;48.750;9.314;2024-03-17T06:00:17;7.30;99.90
40676;DHT22;26359;48.750;9.314;2024-03-17T06:02:44;7.30;99.90
40676;DHT22;26359;48.750;9.314;2024-03-17T06:08:25;7.40;99.90
40676;DHT22;26359;48.750;9.314;2024-03-17T06:10:50;7.40;99.90
40676;DHT22;26359;48.750;9.314;2024-03-17T06:13:16;7.40;99.90
40676;DHT22;26359;48.750;9.314;2024-03-17T06:15:43;7.40;99.90
40676;DHT22;26359;48.750;9.314;2024-03-17T06:18:11;7.40;99.90
40676;DHT22;26359;48.750;9.314;2024-03-17T06:20:44;7.40;99.90
40676;DHT22;26359;48.750;9.314;2024-03-17T06:23:11;7.40;99.90
40676;DHT22;26359;48.750;9.314;2024-03-17T06:25:47;7.40;99.90
40676;DHT22;26359;48.750;9.314;2024-03-17T06:28:15;7.40;99.90
40676;DHT22;26359;48.750;9.314;2024-03-17T06:30:44;7.40;99.90
40676;DHT22;26359;48.750;9.314;2024-03-17T06:33:16;7.40;99.90
40676;DHT22;26359;48.750;9.314;2024-03-17T06:35:44;7.40;99.90
40676;DHT22;26359;48.750;9.314;2024-03-17T06:38:10;7.40;99.90
40676;DHT22;26359;48.750;9.314;2024-03-17T06:40:38;7.40;99.90
40676;DHT22;26359;48.750;9.314;2024-03-17T06:43:04;7.40;99.90
40676;DHT22;26359;48.750;9.314;2024-03-17T06:45:29;7.40;99.90
40676;DHT22;26359;48.750;9.314;2024-03-17T06:47:55;7.40;99.90
40676;DHT22;26359;48.750;9.314;2024-03-17T06:50:21;7.40;99.90
40676;DHT22;26359;48.750;9.314;2024-03-17T06:52:47;7.50;99.90
40676;DHT22;26359;48.750;9.314;2024-03-17T06:55:12;7.40;99.90
40676;DHT22;26359;48.750;9.314;2024-03-17T06:57:38;7.50;99.90
40676;DHT22;26359;48.750;9.314;2024-03-17T07:00:09;7.50;99.90
40676;DHT22;26359;48.750;9.314;2024-03-17T07:02:39;7.60;99.90
40676;DHT22;26359;48.750;9.314;2024-03-17T07:05:06;7.80;99.90
40676;DHT22;26359;48.750;9.314;2024-03-17T07:07:32;7.90;99.90
40676;DHT22;26359;48.750;9.314;2024-03-17T07:09:57;7.90;99.90
40676;DHT22;26359;48.750;9.314;2024-03-17T07:12:23;8.00;99.90
40676;DHT22;26359;48.750;9.314;2024-03-17T07:14:51;8.10;99.90
40676;DHT22;26359;48.750;9.314;2024-03-17T07:17:17;8.10;99.90
40676;DHT22;26359;48.750;9.314;2024-03-17T07:19:43;8.10;99.90
40676;DHT22;26359;48.750;9.314;2024-03-17T07:22:08;8.20;99.90
40676;DHT22;26359;48.750;9.314;2024-03-17T07:24:34;8.20;99.90
40676;DHT22;26359;48.750;9.314;2024-03-17T07:26:59;8.20;99.90
40676;DHT22;26359;48.750;9.314;2024-03-17T07:29:25;8.10;99.90
40676;DHT22;26359;48.750;9.314;2024-03-17T07:31:51;8.10;99.90
40676;DHT22;26359;48.750;9.314;2024-03-17T07:34:16;8.10;99.90
40676;DHT22;26359;48.750;9.314;2024-03-17T07:36:42;8.10;99.90
40676;DHT22;26359;48.750;9.314;2024-03-17T07:39:07;8.10;99.90
40676;DHT22;26359;48.750;9.314;2024-03-17T07:41:33;8.20;99.90
40676;DHT22;26359;48.750;9.314;2024-03-17T07:43:58;8.20;99.90
40676;DHT22;26359;48.750;9.314;2024-03-17T07:46:24;8.20;99.90
40676;DHT22;26359;48.750;9.314;2024-03-17T07:48:50;8.20;99.90
40676;DHT22;26359;48.750;9.314;2024-03-17T07:51:16;8.40;99.90
40676;DHT22;26359;48.750;9.314;2024-03-17T07:53:44;8.40;99.90
40676;DHT22;26359;48.750;9.314;2024-03-17T07:56:14;8.50;99.90
40676;DHT22;26359;48.750;9.314;2024-03-17T07:58:44;8.60;99.90
40676;DHT22;26359;48.750;9.314;2024-03-17T08:01:11;8.70;99.90
40676;DHT22;26359;48.750;9.314;2024-03-17T08:03:39;8.80;99.90
40676;DHT22;26359;48.750;9.314;2024-03-17T08:06:06;8.90;99.90
40676;DHT22;26359;48.750;9.314;2024-03-17T08:08:32;9.00;99.90
40676;DHT22;26359;48.750;9.314;2024-03-17T08:10:58;9.00;99.90
40676;DHT22;26359;48.750;9.314;2024-03-17T08:13:24;9.10;99.90
40676;DHT22;26359;48.750;9.314;2024-03-17T08:15:58;9.20;99.90
40676;DHT22;26359;48.750;9.314;2024-03-17T08:18:25;9.30;99.90
40676;DHT22;26359;48.750;9.314;2024-03-17T08:20:50;9.40;99.90
40676;DHT22;26359;48.750;9.314;2024-03-17T08:23:16;9.40;99.90
40676;DHT22;26359;48.750;9.314;2024-03-17T08:25:42;9.50;99.90
40676;DHT22;26359;48.750;9.314;2024-03-17T08:28:07;9.60;99.90
40676;DHT22;26359;48.750;9.314;2024-03-17T08:30:33;9.70;99.90
40676;DHT22;26359;48.750;9.314;2024-03-17T08:32:59;9.80;99.90
40676;DHT22;26359;48.750;9.314;2024-03-17T08:35:25;10.00;99.90
40676;DHT22;26359;48.750;9.314;2024-03-17T08:37:51;9.80;99.90
40676;DHT22;26359;48.750;9.314;2024-03-17T08:40:19;9.90;99.90
40676;DHT22;26359;48.750;9.314;2024-03-17T08:42:45;9.80;99.90
40676;DHT22;26359;48.750;9.314;2024-03-17T08:45:11;9.80;99.90
40676;DHT22;26359;48.750;9.314;2024-03-17T08:47:38;9.80;99.90
40676;DHT22;26359;48.750;9.314;2024-03-17T08:50:04;9.80;99.90
40676;DHT22;26359;48.750;9.314;2024-03-17T08:52:32;9.90;99.90
40676;DHT22;26359;48.750;9.314;2024-03-17T08:54:58;10.10;99.90
40676;DHT22;26359;48.750;9.314;2024-03-17T08:57:24;10.30;99.90
40676;DHT22;26359;48.750;9.314;2024-03-17T08:59:50;10.40;99.90
40676;DHT22;26359;48.750;9.314;2024-03-17T09:02:19;10.60;99.90
40676;DHT22;26359;48.750;9.314;2024-03-17T09:04:47;10.80;99.90
40676;DHT22;26359;48.750;9.314;2024-03-17T09:07:16;10.80;99.90
40676;DHT22;26359;48.750;9.314;2024-03-17T09:09:42;10.90;99.90
40676;DHT22;26359;48.750;9.314;2024-03-17T09:12:08;11.10;99.90
40676;DHT22;26359;48.750;9.314;2024-03-17T09:14:34;11.30;99.90
40676;DHT22;26359;48.750;9.314;2024-03-17T09:17:00;11.40;99.90
40676;DHT22;26359;48.750;9.314;2024-03-17T09:19:26;11.50;99.90
40676;DHT22;26359;48.750;9.314;2024-03-17T09:21:51;11.60;99.90
40676;DHT22;26359;48.750;9.314;2024-03-17T09:24:17;11.60;99.90
40676;DHT22;26359;48.750;9.314;2024-03-17T09:26:42;11.70;99.90
40676;DHT22;26359;48.750;9.314;2024-03-17T09:29:08;11.80;99.90
40676;DHT22;26359;48.750;9.314;2024-03-17T09:31:34;11.90;99.90
40676;DHT22;26359;48.750;9.314;2024-03-17T09:34:01;12.00;99.90
40676;DHT22;26359;48.750;9.314;2024-03-17T09:36:27;12.00;99.90
40676;DHT22;26359;48.750;9.314;2024-03-17T09:38:52;12.10;99.90
40676;DHT22;26359;48.750;9.314;2024-03-17T09:41:22;12.00;99.90
40676;DHT22;26359;48.750;9.314;2024-03-17T09:43:52;12.10;99.90
40676;DHT22;26359;48.750;9.314;2024-03-17T09:46:19;12.10;99.90
40676;DHT22;26359;48.750;9.314;2024-03-17T09:48:44;12.20;99.90
40676;DHT22;26359;48.750;9.314;2024-03-17T09:51:22;12.30;99.90
40676;DHT22;26359;48.750;9.314;2024-03-17T09:53:49;12.30;99.90
40676;DHT22;26359;48.750;9.314;2024-03-17T09:56:16;12.40;99.90
40676;DHT22;26359;48.750;9.314;2024-03-17T09:58:43;12.50;99.90
40676;DHT22;26359;48.750;9.314;2024-03-17T10:01:09;12.40;99.90
40676;DHT22;26359;48.750;9.314;2024-03-17T10:03:48;12.50;99.90
40676;DHT22;26359;48.750;9.314;2024-03-17T10:06:18;12.60;99.90
40676;DHT22;26359;48.750;9.314;2024-03-17T10:11:12;12.50;99.90
40676;DHT22;26359;48.750;9.314;2024-03-17T10:13:39;12.50;99.90
40676;DHT22;26359;48.750;9.314;2024-03-17T10:16:04;12.80;99.90
40676;DHT22;26359;48.750;9.314;2024-03-17T10:18:30;13.00;99.90
40676;DHT22;26359;48.750;9.314;2024-03-17T10:20:56;13.10;99.90
40676;DHT22;26359;48.750;9.314;2024-03-17T10:23:23;13.30;99.90
40676;DHT22;26359;48.750;9.314;2024-03-17T10:25:48;13.60;99.90
40676;DHT22;26359;48.750;9.314;2024-03-17T10:28:16;13.80;99.90
40676;DHT22;26359;48.750;9.314;2024-03-17T10:30:57;14.00;99.90
40676;DHT22;26359;48.750;9.314;2024-03-17T10:33:23;14.00;99.90
40676;DHT22;26359;48.750;9.314;2024-03-17T10:35:51;14.00;99.90
40676;DHT22;26359;48.750;9.314;2024-03-17T10:38:23;14.00;99.90
40676;DHT22;26359;48.750;9.314;2024-03-17T10:40:48;13.90;99.90
40676;DHT22;26359;48.750;9.314;2024-03-17T10:43:14;13.90;99.90
40676;DHT22;26359;48.750;9.314;2024-03-17T10:45:40;13.90;99.90
40676;DHT22;26359;48.750;9.314;2024-03-17T10:48:08;14.00;99.90
40676;DHT22;26359;48.750;9.314;2024-03-17T10:50:37;14.30;99.90
40676;DHT22;26359;48.750;9.314;2024-03-17T10:53:04;14.30;99.90
40676;DHT22;26359;48.750;9.314;2024-03-17T10:58:15;14.50;99.90
40676;DHT22;26359;48.750;9.314;2024-03-17T11:00:43;14.40;99.90
40676;DHT22;26359;48.750;9.314;2024-03-17T11:03:10;14.40;99.90
40676;DHT22;26359;48.750;9.314;2024-03-17T11:05:36;14.50;99.90
40676;DHT22;26359;48.750;9.314;2024-03-17T11:08:03;14.80;99.90
40676;DHT22;26359;48.750;9.314;2024-03-17T11:10:31;14.90;99.90
40676;DHT22;26359;48.750;9.314;2024-03-17T11:13:00;15.10;99.90
40676;DHT22;26359;48.750;9.314;2024-03-17T11:20:33;15.70;99.90
40676;DHT22;26359;48.750;9.314;2024-03-17T11:22:59;15.80;99.90
40676;DHT22;26359;48.750;9.314;2024-03-17T11:27:58;15.90;99.90
40676;DHT22;26359;48.750;9.314;2024-03-17T11:47:03;15.80;99.90
40676;DHT22;26359;48.750;9.314;2024-03-17T11:49:37;15.90;99.90
40676;DHT22;26359;48.750;9.314;2024-03-17T11:54:32;16.00;99.90
40676;DHT22;26359;48.750;9.314;2024-03-17T11:57:09;16.00;99.90
40676;DHT22;26359;48.750;9.314;2024-03-17T11:59:38;16.20;99.90
40676;DHT22;26359;48.750;9.314;2024-03-17T12:04:52;15.90;99.90
40676;DHT22;26359;48.750;9.314;2024-03-17T12:07:20;15.70;99.90
40676;DHT22;26359;48.750;9.314;2024-03-17T12:09:47;15.20;99.90
40676;DHT22;26359;48.750;9.314;2024-03-17T12:12:26;15.40;99.90
40676;DHT22;26359;48.750;9.314;2024-03-17T12:15:01;15.20;99.90
40676;DHT22;26359;48.750;9.314;2024-03-17T12:17:28;15.00;99.90
40676;DHT22;26359;48.750;9.314;2024-03-17T12:19:54;15.00;99.90
40676;DHT22;26359;48.750;9.314;2024-03-17T12:22:23;15.00;99.90
40676;DHT22;26359;48.750;9.314;2024-03-17T12:24:51;15.00;99.90
40676;DHT22;26359;48.750;9.314;2024-03-17T12:27:21;14.90;99.90
40676;DHT22;26359;48.750;9.314;2024-03-17T12:29:54;14.90;99.90
40676;DHT22;26359;48.750;9.314;2024-03-17T12:32:22;15.00;99.90
40676;DHT22;26359;48.750;9.314;2024-03-17T12:34:56;14.90;99.90
40676;DHT22;26359;48.750;9.314;2024-03-17T12:37:24;14.90;99.90
40676;DHT22;26359;48.750;9.314;2024-03-17T12:39:59;14.90;99.90
40676;DHT22;26359;48.750;9.314;2024-03-17T12:42:26;15.00;99.90
40676;DHT22;26359;48.750;9.314;2024-03-17T12:52:46;14.60;99.90
40676;DHT22;26359;48.750;9.314;2024-03-17T12:55:36;14.60;99.90
40676;DHT22;26359;48.750;9.314;2024-03-17T12:58:21;14.60;99.90
40676;DHT22;26359;48.750;9.314;2024-03-17T13:01:25;14.60;99.90
40676;DHT22;26359;48.750;9.314;2024-03-17T13:04:29;14.70;99.90
40676;DHT22;26359;48.750;9.314;2024-03-17T13:08:03;14.70;99.90
40676;DHT22;26359;48.750;9.314;2024-03-17T13:10:01;14.70;99.90
40676;DHT22;26359;48.750;9.314;2024-03-17T13:12:28;14.60;99.90
40676;DHT22;26359;48.750;9.314;2024-03-17T13:14:53;14.60;99.90
40676;DHT22;26359;48.750;9.314;2024-03-17T13:17:19;14.60;99.90
40676;DHT22;26359;48.750;9.314;2024-03-17T13:19:45;14.60;99.90
40676;DHT22;26359;48.750;9.314;2024-03-17T13:22:12;14.50;99.90
40676;DHT22;26359;48.750;9.314;2024-03-17T13:24:38;14.50;99.90
40676;DHT22;26359;48.750;9.314;2024-03-17T13:27:04;14.60;99.90
40676;DHT22;26359;48.750;9.314;2024-03-17T13:29:32;14.80;99.90
40676;DHT22;26359;48.750;9.314;2024-03-17T13:32:04;14.80;99.90
40676;DHT22;26359;48.750;9.314;2024-03-17T13:34:30;14.80;99.90
40676;DHT22;26359;48.750;9.314;2024-03-17T13:36:56;14.90;99.90
40676;DHT22;26359;48.750;9.314;2024-03-17T13:39:22;15.00;99.90
40676;DHT22;26359;48.750;9.314;2024-03-17T13:41:47;15.00;99.90
40676;DHT22;26359;48.750;9.314;2024-03-17T13:44:15;15.10;99.90
40676;DHT22;26359;48.750;9.314;2024-03-17T13:46:40;15.10;99.90
40676;DHT22;26359;48.750;9.314;2024-03-17T13:49:09;15.20;99.90
40676;DHT22;26359;48.750;9.314;2024-03-17T13:51:35;15.10;99.90
40676;DHT22;26359;48.750;9.314;2024-03-17T13:54:00;15.20;99.90
40676;DHT22;26359;48.750;9.314;2024-03-17T13:56:27;15.10;99.90
40676;DHT22;26359;48.750;9.314;2024-03-17T13:58:53;15.10;99.90
40676;DHT22;26359;48.750;9.314;2024-03-17T14:01:18;15.00;99.90
40676;DHT22;26359;48.750;9.314;2024-03-17T14:03:44;15.10;99.90
40676;DHT22;26359;48.750;9.314;2024-03-17T14:06:11;15.10;99.90
40676;DHT22;26359;48.750;9.314;2024-03-17T14:08:36;15.10;99.90
40676;DHT22;26359;48.750;9.314;2024-03-17T14:11:02;15.10;99.90
40676;DHT22;26359;48.750;9.314;2024-03-17T14:13:29;15.00;99.90
40676;DHT22;26359;48.750;9.314;2024-03-17T14:15:58;14.90;99.90
40676;DHT22;26359;48.750;9.314;2024-03-17T14:18:24;14.80;99.90
40676;DHT22;26359;48.750;9.314;2024-03-17T14:20:49;14.80;99.90
40676;DHT22;26359;48.750;9.314;2024-03-17T14:23:18;14.80;99.90
40676;DHT22;26359;48.750;9.314;2024-03-17T14:25:43;14.80;99.90
40676;DHT22;26359;48.750;9.314;2024-03-17T14:28:09;14.80;99.90
40676;DHT22;26359;48.750;9.314;2024-03-17T14:30:37;14.90;99.90
40676;DHT22;26359;48.750;9.314;2024-03-17T14:33:03;15.00;99.90
40676;DHT22;26359;48.750;9.314;2024-03-17T14:35:31;15.20;99.90
40676;DHT22;26359;48.750;9.314;2024-03-17T14:37:57;15.30;99.90
40676;DHT22;26359;48.750;9.314;2024-03-17T14:40:27;15.40;99.90
40676;DHT22;26359;48.750;9.314;2024-03-17T14:42:55;15.40;99.90
40676;DHT22;26359;48.750;9.314;2024-03-17T14:45:21;15.40;99.90
40676;DHT22;26359;48.750;9.314;2024-03-17T14:47:50;15.50;99.90
40676;DHT22;26359;48.750;9.314;2024-03-17T14:50:17;15.50;99.90
40676;DHT22;26359;48.750;9.314;2024-03-17T14:52:43;15.60;99.90
40676;DHT22;26359;48.750;9.314;2024-03-17T14:55:09;15.80;99.90
40676;DHT22;26359;48.750;9.314;2024-03-17T14:57:36;16.00;99.90
40676;DHT22;26359;48.750;9.314;2024-03-17T15:00:04;16.20;99.90
40676;DHT22;26359;48.750;9.314;2024-03-17T15:02:39;16.10;99.90
40676;DHT22;26359;48.750;9.314;2024-03-17T15:05:06;16.30;99.90
40676;DHT22;26359;48.750;9.314;2024-03-17T15:07:31;16.40;99.90
40676;DHT22;26359;48.750;9.314;2024-03-17T15:09:57;16.30;99.90
40676;DHT22;26359;48.750;9.314;2024-03-17T15:12:23;16.20;99.90
40676;DHT22;26359;48.750;9.314;2024-03-17T15:14:49;16.30;99.90
40676;DHT22;26359;48.750;9.314;2024-03-17T15:17:15;16.20;99.90
40676;DHT22;26359;48.750;9.314;2024-03-17T15:19:41;16.20;99.90
40676;DHT22;26359;48.750;9.314;2024-03-17T15:22:08;16.30;99.90
40676;DHT22;26359;48.750;9.314;2024-03-17T15:24:34;16.20;99.90
40676;DHT22;26359;48.750;9.314;2024-03-17T15:26:59;16.20;99.90
40676;DHT22;26359;48.750;9.314;2024-03-17T15:29:25;16.20;99.90
40676;DHT22;26359;48.750;9.314;2024-03-17T15:31:50;16.10;99.90
40676;DHT22;26359;48.750;9.314;2024-03-17T15:34:16;16.10;99.90
40676;DHT22;26359;48.750;9.314;2024-03-17T15:36:48;16.00;99.90
40676;DHT22;26359;48.750;9.314;2024-03-17T15:39:18;15.80;99.90
40676;DHT22;26359;48.750;9.314;2024-03-17T15:42:05;15.60;99.90
40676;DHT22;26359;48.750;9.314;2024-03-17T15:44:50;15.40;99.90
40676;DHT22;26359;48.750;9.314;2024-03-17T15:47:39;15.30;99.90
40676;DHT22;26359;48.750;9.314;2024-03-17T15:50:05;15.30;99.90
40676;DHT22;26359;48.750;9.314;2024-03-17T15:52:34;15.30;99.90
40676;DHT22;26359;48.750;9.314;2024-03-17T15:55:01;15.20;99.90
40676;DHT22;26359;48.750;9.314;2024-03-17T15:57:28;15.10;99.90
40676;DHT22;26359;48.750;9.314;2024-03-17T15:59:54;15.00;99.90
40676;DHT22;26359;48.750;9.314;2024-03-17T16:02:20;15.00;99.90
40676;DHT22;26359;48.750;9.314;2024-03-17T16:04:47;14.80;99.90
40676;DHT22;26359;48.750;9.314;2024-03-17T16:07:14;14.80;99.90
40676;DHT22;26359;48.750;9.314;2024-03-17T16:09:39;14.70;99.90
40676;DHT22;26359;48.750;9.314;2024-03-17T16:12:05;14.60;99.90
40676;DHT22;26359;48.750;9.314;2024-03-17T16:14:34;14.50;99.90
40676;DHT22;26359;48.750;9.314;2024-03-17T16:17:00;14.40;99.90
40676;DHT22;26359;48.750;9.314;2024-03-17T16:19:25;14.40;99.90
40676;DHT22;26359;48.750;9.314;2024-03-17T16:21:52;14.30;99.90
40676;DHT22;26359;48.750;9.314;2024-03-17T16:24:17;14.30;99.90
40676;DHT22;26359;48.750;9.314;2024-03-17T16:26:43;14.20;99.90